Home > Products > Valid Products > TAF

000
FTUS44 KSJT 250500
TAFJCT
TAF
KJCT 250540Z 2506/2606 VRB04KT P6SM SKC
     FM251700 16007KT P6SM SCT060=



000
FTUS44 KSJT 250500
TAFABI
TAF
KABI 250540Z 2506/2606 16007KT P6SM SKC
     FM251700 18010KT P6SM SKC=



000
FTUS44 KSJT 250500
TAFSJT
TAF
KSJT 250540Z 2506/2606 16006KT P6SM SKC
     FM251700 18008KT P6SM SKC=



000
FTUS44 KSJT 242300
TAFJCT
TAF
KJCT 242320Z 2500/2524 11009KT P6SM SCT080
     FM250300 VRB04KT P6SM SKC=



000
FTUS44 KSJT 242300
TAFSJT
TAF
KSJT 242320Z 2500/2524 09010KT P6SM SCT080
     FM250300 17008KT P6SM SKC=



000
FTUS44 KSJT 242300
TAFABI
TAF
KABI 242320Z 2500/2524 11009KT P6SM FEW080
     FM250300 12009KT P6SM SKC
     FM251700 18011KT P6SM SKC=



000
FTUS44 KSJT 242100 AAA
TAFSJT
TAF AMD
KSJT 242116Z 2421/2518 08010KT P6SM SCT080
     FM250400 15004KT P6SM SKC
     FM250600 20006KT P6SM SKC=



000
FTUS44 KSJT 241700
TAFJCT
TAF
KJCT 241720Z 2418/2518 09009KT P6SM SCT080
     FM250600 18005KT P6SM SKC=



000
FTUS44 KSJT 241700
TAFABI
TAF
KABI 241720Z 2418/2518 08008KT P6SM FEW080
     FM250200 12007KT P6SM SKC
     FM251400 21011KT P6SM SKC=



000
FTUS44 KSJT 241700
TAFSJT
TAF
KSJT 241720Z 2418/2518 09008KT P6SM SCT080
     FM250600 20006KT P6SM SKC=



000
FTUS44 KSJT 241100 RRA
TAFABI
TAF
KABI 241141Z 2412/2512 VRB06KT P6SM SCT250
     FM241700 08008KT P6SM FEW080
     FM250200 12007KT P6SM SKC=



000
FTUS44 KSJT 241100 RRA
TAFJCT
TAF
KJCT 241141Z 2412/2512 VRB03KT P6SM SCT250
     FM241700 08009KT P6SM SCT080
     FM250200 13005KT P6SM SKC=



000
FTUS44 KSJT 241100 RRA
TAFSJT
TAF
KSJT 241141Z 2412/2512 VRB03KT P6SM SCT250
     FM241700 07008KT P6SM SCT080
     FM250200 13006KT P6SM SKC=



000
FTUS44 KSJT 240500
TAFABI
TAF
KABI 240520Z 2406/2506 10006KT P6SM SCT250=



000
FTUS44 KSJT 240500
TAFSJT
TAF
KSJT 240520Z 2406/2506 09006KT P6SM SCT250=



000
FTUS44 KSJT 240500
TAFJCT
TAF
KJCT 240520Z 2406/2506 09005KT P6SM SCT250=



000
FTUS44 KSJT 232300
TAFSJT
TAF
KSJT 232320Z 2400/2424 09006KT P6SM SCT250=



000
FTUS44 KSJT 232300
TAFJCT
TAF
KJCT 232320Z 2400/2424 09005KT P6SM SCT250=



000
FTUS44 KSJT 232300
TAFABI
TAF
KABI 232320Z 2400/2424 10006KT P6SM SCT250=



000
FTUS44 KSJT 231700
TAFJCT
TAF
KJCT 231726Z 2318/2418 09009KT P6SM SCT070
     FM240100 09005KT P6SM SKC=



000
FTUS44 KSJT 231700
TAFSJT
TAF
KSJT 231726Z 2318/2418 08008KT P6SM SCT080
     FM240100 10006KT P6SM SKC=



000
FTUS44 KSJT 231700
TAFABI
TAF
KABI 231726Z 2318/2418 07009KT P6SM FEW070
     FM240100 10006KT P6SM SKC=



000
FTUS44 KSJT 231300 RRA
TAFABI
TAF
KABI 231300Z 2313/2412 15006KT P6SM SKC
     FM231700 07009KT P6SM FEW070
     FM240100 10006KT P6SM SKC=



000
FTUS44 KSJT 231300 RRA
TAFSJT
TAF
KSJT 231300Z 2313/2412 VRB04KT P6SM FEW250
     FM231700 08008KT P6SM SCT080
     FM240100 10006KT P6SM SKC=



000
FTUS44 KSJT 231300 RRA
TAFJCT
TAF
KJCT 231300Z 2313/2412 VRB03KT P6SM FEW250
     FM231700 09009KT P6SM SCT070
     FM240100 09005KT P6SM SKC=



000
FTUS44 KSJT 230500
TAFSJT
TAF
KSJT 230520Z 2306/2406 11005KT P6SM FEW250
     FM231600 08008KT P6SM SCT080=



000
FTUS44 KSJT 230500
TAFJCT
TAF
KJCT 230520Z 2306/2406 VRB03KT P6SM FEW250
     FM231600 09006KT P6SM SCT080=



000
FTUS44 KSJT 230500
TAFABI
TAF
KABI 230520Z 2306/2406 14006KT P6SM FEW250
     FM231600 07007KT P6SM SCT080=



000
FTUS44 KSJT 222300
TAFSJT
TAF
KSJT 222320Z 2300/2324 09008KT P6SM SCT070
     FM230200 VRB05KT P6SM FEW250=



000
FTUS44 KSJT 222300
TAFABI
TAF
KABI 222320Z 2300/2324 10007KT P6SM FEW100
     FM230500 14006KT P6SM FEW250
     FM231600 07007KT P6SM FEW250=



000
FTUS44 KSJT 222300
TAFJCT
TAF
KJCT 222320Z 2300/2324 10006KT P6SM SCT060
     FM230300 VRB03KT P6SM FEW250=



000
FTUS44 KSJT 221700
TAFSJT
TAF
KSJT 221726Z 2218/2318 13008KT P6SM SCT070
     FM230200 VRB05KT P6SM FEW250=



000
FTUS44 KSJT 221700
TAFJCT
TAF
KJCT 221726Z 2218/2318 11008KT 6SM BR SCT060
     FM230300 VRB03KT P6SM FEW250=



000
FTUS44 KSJT 221700
TAFABI
TAF
KABI 221726Z 2218/2318 16008KT P6SM SCT050
     FM222000 12009KT P6SM SCT070
     FM230500 14006KT P6SM FEW250
     FM231600 07007KT P6SM FEW250=



000
FTUS44 KSJT 221100
TAFABI
TAF
KABI 221130Z 2212/2312 17006KT P6SM BKN250
     FM221800 14008KT P6SM FEW060
     FM222300 12007KT P6SM SKC=



000
FTUS44 KSJT 221100
TAFSJT
TAF
KSJT 221130Z 2212/2312 15004KT P6SM SCT250
     FM221700 13008KT P6SM FEW060
     FM222300 10008KT P6SM SKC=



000
FTUS44 KSJT 221100
TAFJCT
TAF
KJCT 221130Z 2212/2312 14005KT P6SM SCT250
     FM221600 13008KT P6SM SCT050
     FM222300 11007KT P6SM SKC=



    US Dept of Commerce
    National Oceanic and Atmospheric Administration
    National Weather Service
    1325 East West Highway
    Silver Spring, MD 20910
    Page Author: NWS Internet Services Team
Disclaimer
Information Quality
Credits
Glossary
Privacy Policy
Freedom of Information Act (FOIA)
About Us
Career Opportunities